Monroe, LA (71201)

5:23 PM CST on February 10, 2016 (GMT -0600)
Deborah Drive | | Change Station
CLOSE
Current Station
Personal Weather Station
Location: Monroe, LA
Elevation: 79 ft
Nearby Weather Stations

Elev 79 ft 32.55 °N, 92.09 °W | Updated 14 seconds ago

Clear
Clear
60.4 °F
Feels Like 60.4 °F
N
0.0
Wind Variable Wind from SW
Gusts 0.0 mph

Today
High -- | Low -- °F
--% Chance of Precip.
Yesterday
High -- | Low -- °F
Precip. -- in
Pressure 30.18 in
Visibility 10.0 miles
Clouds Clear
Dew Point 19 °F
Humidity 20%
Rainfall 0.00 in
Snow Depth Not available.
6:56 AM 5:49 PM
Waxing Crescent, 8% visible
METAR KMLU 102253Z 23010KT 10SM CLR 14/M02 A3018 RMK AO2 SLP218 T01441017
Pressure 30.18 in
Visibility 10.0 miles
Clouds Clear
Dew Point 19 °F
Humidity 20%
Rainfall 0.00 in
Snow Depth Not available.
6:56 AM 5:49 PM
Waxing Crescent, 8% visible
METAR KMLU 102253Z 23010KT 10SM CLR 14/M02 A3018 RMK AO2 SLP218 T01441017

10-Day Weather Forecast

Almanac

Astronomy

Feb. 10, 2016 Rise Set
Actual Time
Civil Twilight
Nautical Twilight
Astronomical Twilight
Moon
Length of Visible Light
Length of Day
Tomorrow will be .
, % of the Moon is Illuminated

Today's Extremes

State Highs State Lows

Community

WunderPhotos

Upload Photos

1,891,935 photos uploaded!

WunderBlog® & News

Nearby

Air Quality

  Air Quality AQ Index Pollutant
Not available.

Snow Depth

Station Depth Elevation

Earthquake Activity

City Distance Mag. Time & Date
Minimum magnitude displayed is 2.5.

Coastal Water Temperatures

Place Temperature

Stations

Nearby Weather Stations

Station Location Temp. Windchill Dew Point Humidity Wind Precip. Elev Updated Type
                   

Watches & Warnings

There are currently no watches in effect.